Time;durP1;ratioP1;P1;durP2;ratioP2;P2;SDS_P1;SDS_P2;PMS_P1;PMS_P2;Temp;Humidity;BMP_temperature;BMP_pressure;BME280_temperature;BME280_humidity;BME280_pressure;Samples;Min_cycle;Max_cycle;Signal;HPM_P1;HPM_P2
2021/09/10 00:01:08;;;;;;;22.00;14.40;;;17.20;57.50;;;;;;4862053;29;20022;-64
2021/09/10 00:03:33;;;;;;;20.77;15.18;;;17.20;57.50;;;;;;4845620;29;20546;-64
2021/09/10 00:05:59;;;;;;;22.38;15.18;;;17.20;57.70;;;;;;4861786;29;20108;-62
2021/09/10 00:08:25;;;;;;;20.67;15.43;;;17.10;57.90;;;;;;4861917;29;20101;-63
2021/09/10 00:10:50;;;;;;;20.60;14.45;;;17.00;58.10;;;;;;4861795;29;20545;-63
2021/09/10 00:13:16;;;;;;;19.20;13.90;;;17.00;58.40;;;;;;4861544;29;20030;-63
2021/09/10 00:15:42;;;;;;;17.25;12.48;;;16.90;58.50;;;;;;4856957;29;20116;-62
2021/09/10 00:18:07;;;;;;;15.77;11.57;;;16.90;58.40;;;;;;4861721;29;20068;-62
2021/09/10 00:20:33;;;;;;;15.40;11.00;;;16.90;58.30;;;;;;4861825;29;20034;-62
2021/09/10 00:22:59;;;;;;;13.85;10.02;;;16.90;58.20;;;;;;4861729;29;20514;-66
2021/09/10 00:25:24;;;;;;;15.30;10.90;;;16.90;58.10;;;;;;4861641;29;20035;-62
2021/09/10 00:27:50;;;;;;;15.27;11.25;;;17.00;58.10;;;;;;4862059;29;20465;-63
2021/09/10 00:30:15;;;;;;;15.80;12.00;;;17.00;58.00;;;;;;4861665;29;20041;-62
2021/09/10 00:32:41;;;;;;;17.90;12.10;;;17.00;58.00;;;;;;4861643;29;20394;-62
2021/09/10 00:35:07;;;;;;;17.77;12.48;;;16.90;58.00;;;;;;4861490;29;20447;-62
2021/09/10 00:37:33;;;;;;;15.77;11.10;;;16.90;58.20;;;;;;4861645;29;20482;-63
2021/09/10 00:39:58;;;;;;;13.40;10.43;;;16.90;58.20;;;;;;4861515;29;20072;-62
2021/09/10 00:42:24;;;;;;;15.05;10.88;;;16.90;58.20;;;;;;4861638;29;20026;-63
2021/09/10 00:44:50;;;;;;;15.75;10.80;;;16.90;58.20;;;;;;4858892;29;20103;-63
2021/09/10 00:47:16;;;;;;;15.55;10.52;;;16.90;58.20;;;;;;4858836;29;20033;-63
2021/09/10 00:49:43;;;;;;;16.67;11.70;;;16.90;58.20;;;;;;4861312;29;20025;-62
2021/09/10 00:52:10;;;;;;;16.25;11.50;;;16.90;58.20;;;;;;4861580;29;20121;-62
2021/09/10 00:54:35;;;;;;;16.50;12.15;;;16.90;58.30;;;;;;4861070;29;20048;-62
2021/09/10 00:57:01;;;;;;;18.35;13.77;;;16.90;58.30;;;;;;4861216;29;20108;-62
2021/09/10 00:59:27;;;;;;;18.13;13.45;;;16.80;58.40;;;;;;4861121;29;20061;-62
2021/09/10 01:01:54;;;;;;;20.73;14.60;;;16.70;58.50;;;;;;4861237;29;20029;-62
2021/09/10 01:04:25;;;;;;;22.50;15.95;;;16.70;58.70;;;;;;4861034;29;20469;-62
2021/09/10 01:06:52;;;;;;;22.98;16.67;;;16.60;58.90;;;;;;4860925;29;20036;-63
2021/09/10 01:09:20;;;;;;;23.42;15.70;;;16.60;59.00;;;;;;4860975;29;20073;-62
2021/09/10 01:11:47;;;;;;;20.88;15.02;;;16.50;59.00;;;;;;4861216;29;20034;-63
2021/09/10 01:14:15;;;;;;;19.17;13.65;;;16.50;59.20;;;;;;4860649;29;20037;-62
2021/09/10 01:16:42;;;;;;;17.30;12.98;;;16.40;59.30;;;;;;4876344;29;20193;-62
2021/09/10 01:19:07;;;;;;;17.38;12.32;;;16.50;59.40;;;;;;4879030;29;20032;-62
2021/09/10 01:21:33;;;;;;;16.15;10.85;;;16.40;59.30;;;;;;4879243;29;20021;-62
2021/09/10 01:23:59;;;;;;;16.80;11.20;;;16.40;59.40;;;;;;4878812;29;20075;-62
2021/09/10 01:26:25;;;;;;;14.38;10.55;;;16.40;59.00;;;;;;4871716;29;20029;-62
2021/09/10 01:28:50;;;;;;;15.30;11.25;;;16.50;58.90;;;;;;4860673;29;20032;-63
2021/09/10 01:31:16;;;;;;;15.75;11.60;;;16.60;58.70;;;;;;4860592;29;20470;-63
2021/09/10 01:33:42;;;;;;;16.23;11.48;;;16.60;58.60;;;;;;4860942;29;20033;-63
2021/09/10 01:36:09;;;;;;;16.38;11.85;;;16.70;58.50;;;;;;4860540;29;20077;-63
2021/09/10 01:38:35;;;;;;;20.55;15.30;;;16.70;58.30;;;;;;4860603;29;20036;-63
2021/09/10 01:41:00;;;;;;;24.70;17.88;;;16.70;58.20;;;;;;4860559;29;20044;-63
2021/09/10 01:43:26;;;;;;;20.23;15.02;;;16.70;58.20;;;;;;4860700;29;20065;-63
2021/09/10 01:45:52;;;;;;;21.02;15.50;;;16.60;58.30;;;;;;4860569;29;20125;-63
2021/09/10 01:48:18;;;;;;;19.95;14.80;;;16.60;58.50;;;;;;4860153;29;20033;-62
2021/09/10 01:50:43;;;;;;;19.42;15.07;;;16.50;58.80;;;;;;4860250;29;20094;-62
2021/09/10 01:53:09;;;;;;;18.33;13.23;;;16.40;59.00;;;;;;4860188;29;20117;-62
2021/09/10 01:55:35;;;;;;;19.48;13.80;;;16.30;59.00;;;;;;4860101;29;20032;-62
2021/09/10 01:58:01;;;;;;;16.98;12.45;;;16.20;59.10;;;;;;4860026;29;20072;-62
2021/09/10 02:00:27;;;;;;;16.65;12.20;;;16.20;59.20;;;;;;4860106;29;20040;-63
2021/09/10 02:02:53;;;;;;;16.92;11.68;;;16.20;59.30;;;;;;4859990;29;20474;-63
2021/09/10 02:05:18;;;;;;;17.23;12.15;;;16.10;59.30;;;;;;4860083;29;20089;-62
2021/09/10 02:07:44;;;;;;;17.45;12.07;;;16.10;59.50;;;;;;4860050;29;20381;-62
2021/09/10 02:10:12;;;;;;;17.10;12.50;;;16.10;59.70;;;;;;4860089;29;20481;-62
2021/09/10 02:12:38;;;;;;;17.27;12.32;;;16.00;60.00;;;;;;4860229;29;20108;-62
2021/09/10 02:15:06;;;;;;;17.23;11.43;;;16.00;60.20;;;;;;4859666;29;20026;-62
2021/09/10 02:17:31;;;;;;;16.00;11.40;;;15.90;60.10;;;;;;4860030;29;20064;-62
2021/09/10 02:19:57;;;;;;;15.70;11.27;;;15.80;60.10;;;;;;4859938;29;20057;-62
2021/09/10 02:22:23;;;;;;;15.98;11.40;;;15.80;60.20;;;;;;4843063;29;20110;-62
2021/09/10 02:24:48;;;;;;;16.10;11.23;;;15.80;60.30;;;;;;4859785;29;20497;-62
2021/09/10 02:27:15;;;;;;;16.33;11.75;;;15.70;60.30;;;;;;4859641;29;20104;-62
2021/09/10 02:29:42;;;;;;;19.08;13.25;;;15.70;60.40;;;;;;4859714;29;20061;-61
2021/09/10 02:32:08;;;;;;;17.23;11.88;;;15.60;60.70;;;;;;4859822;29;20034;-62
2021/09/10 02:34:33;;;;;;;18.58;12.38;;;15.50;60.60;;;;;;4855736;29;20067;-63
2021/09/10 02:36:59;;;;;;;18.33;12.38;;;15.50;60.80;;;;;;4878371;29;20033;-62
2021/09/10 02:39:25;;;;;;;15.93;11.07;;;15.40;60.70;;;;;;4878420;29;20025;-62
2021/09/10 02:41:51;;;;;;;14.38;10.05;;;15.40;60.80;;;;;;4878117;29;20044;-62
2021/09/10 02:44:16;;;;;;;15.18;10.98;;;15.50;60.80;;;;;;4878553;29;20025;-62
2021/09/10 02:46:42;;;;;;;13.82;9.45;;;15.40;60.80;;;;;;4878116;29;20536;-62
2021/09/10 02:49:08;;;;;;;12.98;8.45;;;15.40;60.70;;;;;;4877901;29;20066;-63
2021/09/10 02:51:34;;;;;;;11.75;8.30;;;15.50;60.70;;;;;;4878297;29;20029;-63
2021/09/10 02:54:00;;;;;;;11.32;7.55;;;15.50;60.60;;;;;;4876801;29;20040;-62
2021/09/10 02:56:25;;;;;;;12.95;8.90;;;15.60;60.40;;;;;;4878001;29;20100;-65
2021/09/10 02:58:51;;;;;;;14.38;9.20;;;15.70;60.30;;;;;;4878092;29;20170;-62
2021/09/10 03:01:17;;;;;;;11.48;8.38;;;15.70;60.10;;;;;;4877964;29;20358;-62
2021/09/10 03:03:43;;;;;;;12.52;8.50;;;15.70;60.10;;;;;;4877883;29;20081;-62
2021/09/10 03:06:08;;;;;;;12.00;8.63;;;15.70;60.10;;;;;;4877939;29;20036;-62
2021/09/10 03:08:34;;;;;;;11.73;8.23;;;15.70;60.20;;;;;;4877943;29;20033;-62
2021/09/10 03:11:00;;;;;;;11.60;8.52;;;15.70;60.10;;;;;;4877937;29;20033;-62
2021/09/10 03:13:26;;;;;;;11.00;8.02;;;15.70;60.10;;;;;;4877769;29;20499;-63
2021/09/10 03:15:51;;;;;;;12.10;8.32;;;15.70;60.00;;;;;;4877780;29;20037;-62
2021/09/10 03:18:17;;;;;;;11.20;8.05;;;15.70;60.00;;;;;;4877907;29;20057;-63
2021/09/10 03:20:43;;;;;;;10.85;7.93;;;15.60;59.90;;;;;;4878155;29;20036;-63
2021/09/10 03:23:09;;;;;;;12.15;8.95;;;15.50;59.90;;;;;;4877864;29;20087;-62
2021/09/10 03:25:35;;;;;;;13.15;8.95;;;15.50;60.20;;;;;;4877786;29;20033;-62
2021/09/10 03:28:01;;;;;;;12.50;9.05;;;15.30;60.30;;;;;;4877710;29;20097;-63
2021/09/10 03:30:27;;;;;;;12.93;8.50;;;15.30;60.50;;;;;;4877683;29;20057;-65
2021/09/10 03:32:53;;;;;;;11.10;7.95;;;15.30;60.60;;;;;;4877584;29;20056;-63
2021/09/10 03:35:18;;;;;;;12.02;8.68;;;15.20;60.60;;;;;;4877918;29;20085;-63
2021/09/10 03:37:44;;;;;;;16.52;10.98;;;15.30;60.60;;;;;;4877849;29;20036;-63
2021/09/10 03:40:10;;;;;;;13.02;9.45;;;15.30;60.70;;;;;;4878104;29;20029;-62
2021/09/10 03:42:36;;;;;;;12.23;8.13;;;15.30;60.50;;;;;;4880987;29;20089;-63
2021/09/10 03:45:03;;;;;;;12.50;8.98;;;15.40;60.40;;;;;;4880994;29;20484;-62
2021/09/10 03:47:29;;;;;;;12.35;8.27;;;15.40;60.20;;;;;;4880911;29;20033;-63
2021/09/10 03:49:55;;;;;;;11.75;8.23;;;15.50;60.20;;;;;;4880924;29;20029;-63
2021/09/10 03:52:20;;;;;;;15.50;8.10;;;15.50;60.20;;;;;;4880959;29;20370;-62
2021/09/10 03:54:46;;;;;;;11.32;7.72;;;15.50;60.10;;;;;;4861188;29;20534;-63
2021/09/10 03:57:11;;;;;;;12.52;8.55;;;15.50;60.10;;;;;;4862179;29;20394;-63
2021/09/10 03:59:37;;;;;;;11.70;8.10;;;15.50;60.10;;;;;;4862127;29;20482;-63
2021/09/10 04:02:03;;;;;;;13.77;8.95;;;15.60;60.00;;;;;;4861922;29;20028;-63
2021/09/10 04:04:29;;;;;;;13.43;9.48;;;15.60;60.00;;;;;;4862152;29;20049;-63
2021/09/10 04:06:55;;;;;;;14.18;10.02;;;15.60;60.00;;;;;;4862195;29;20036;-63
2021/09/10 04:09:20;;;;;;;14.27;9.85;;;15.70;60.10;;;;;;4862044;29;20512;-64
2021/09/10 04:11:46;;;;;;;15.45;10.57;;;15.70;60.10;;;;;;4856866;29;20139;-63
2021/09/10 04:14:12;;;;;;;16.95;12.23;;;15.60;60.00;;;;;;4861776;29;20117;-63
2021/09/10 04:16:37;;;;;;;17.83;12.95;;;15.70;60.10;;;;;;4875130;29;20036;-63
2021/09/10 04:19:03;;;;;;;17.70;11.80;;;15.60;60.10;;;;;;4858104;29;20169;-63
2021/09/10 04:21:29;;;;;;;17.67;11.63;;;15.60;60.10;;;;;;4861739;29;20382;-63
2021/09/10 04:23:55;;;;;;;16.73;11.23;;;15.70;60.10;;;;;;4861615;29;20057;-62
2021/09/10 04:26:21;;;;;;;23.60;15.73;;;15.70;60.10;;;;;;4864538;29;20085;-63
2021/09/10 04:28:47;;;;;;;28.20;17.35;;;15.70;60.30;;;;;;4869651;29;20021;-64
2021/09/10 04:31:14;;;;;;;33.28;19.63;;;15.60;60.20;;;;;;4880183;29;20112;-63
2021/09/10 04:33:40;;;;;;;32.75;20.05;;;15.70;60.40;;;;;;4880083;29;20033;-63
2021/09/10 04:36:06;;;;;;;32.72;20.23;;;15.60;60.50;;;;;;4879990;29;20033;-63
2021/09/10 04:38:31;;;;;;;35.55;21.45;;;15.60;60.70;;;;;;4863599;29;20492;-64
2021/09/10 04:40:57;;;;;;;32.45;21.13;;;15.60;60.80;;;;;;4879997;29;20025;-62
2021/09/10 04:43:23;;;;;;;40.85;24.77;;;15.60;61.00;;;;;;4880204;29;20113;-63
2021/09/10 04:45:48;;;;;;;35.17;22.30;;;15.60;60.90;;;;;;4879746;29;20085;-64
2021/09/10 04:48:14;;;;;;;38.33;24.67;;;15.60;60.90;;;;;;4879797;29;20040;-63
2021/09/10 04:50:40;;;;;;;37.33;23.13;;;15.60;61.10;;;;;;4879945;29;20070;-64
2021/09/10 04:53:08;;;;;;;37.63;23.52;;;15.60;61.10;;;;;;4878615;29;20037;-63
2021/09/10 04:55:34;;;;;;;44.42;26.33;;;15.70;61.20;;;;;;4879816;29;20369;-63
2021/09/10 04:58:00;;;;;;;49.10;28.35;;;15.80;61.30;;;;;;4879723;29;20033;-63
2021/09/10 05:00:25;;;;;;;44.67;26.98;;;15.80;61.30;;;;;;4879500;29;20528;-63
2021/09/10 05:02:51;;;;;;;44.28;27.55;;;15.90;61.20;;;;;;4879590;29;20104;-65
2021/09/10 05:05:17;;;;;;;47.60;28.08;;;15.90;61.10;;;;;;4879307;29;20029;-63
2021/09/10 05:07:43;;;;;;;40.60;25.85;;;16.00;61.20;;;;;;4879790;29;20108;-63
2021/09/10 05:10:09;;;;;;;49.08;29.20;;;16.00;61.10;;;;;;4879427;29;20043;-64
2021/09/10 05:12:35;;;;;;;47.72;28.92;;;16.10;61.20;;;;;;4879142;29;20137;-63
2021/09/10 05:15:01;;;;;;;49.28;28.23;;;16.10;61.20;;;;;;4879090;29;20056;-64
2021/09/10 05:17:27;;;;;;;44.72;26.52;;;16.20;61.20;;;;;;4879168;29;20096;-62
2021/09/10 05:19:53;;;;;;;41.58;25.42;;;16.30;61.30;;;;;;4879229;29;20109;-63
2021/09/10 05:22:19;;;;;;;36.83;22.27;;;16.40;61.20;;;;;;4878966;29;20060;-63
2021/09/10 05:24:44;;;;;;;33.45;20.02;;;16.50;61.00;;;;;;4862616;29;20036;-63
2021/09/10 05:27:10;;;;;;;27.52;17.42;;;16.60;61.00;;;;;;4879044;29;20036;-63
2021/09/10 05:29:36;;;;;;;26.15;16.80;;;16.70;60.80;;;;;;4878996;29;20078;-63
2021/09/10 05:32:02;;;;;;;23.17;14.48;;;16.70;60.70;;;;;;4879002;29;20033;-63
2021/09/10 05:34:28;;;;;;;20.75;14.20;;;16.80;60.70;;;;;;4879004;29;20370;-63
2021/09/10 05:36:53;;;;;;;19.92;13.18;;;16.90;60.70;;;;;;4878875;29;20021;-62
2021/09/10 05:39:21;;;;;;;16.27;11.48;;;17.00;60.60;;;;;;4879319;29;20037;-63
2021/09/10 05:41:47;;;;;;;18.58;11.93;;;17.10;60.60;;;;;;4862538;29;20063;-64
2021/09/10 05:44:12;;;;;;;16.10;10.50;;;17.20;60.50;;;;;;4866812;29;20022;-62
2021/09/10 05:46:38;;;;;;;16.63;11.07;;;17.30;60.30;;;;;;4860286;29;20112;-63
2021/09/10 05:49:04;;;;;;;17.25;11.15;;;17.40;60.20;;;;;;4860179;29;20029;-63
2021/09/10 05:51:30;;;;;;;17.10;11.05;;;17.50;60.10;;;;;;4860249;29;20037;-63
2021/09/10 05:53:55;;;;;;;14.70;10.50;;;17.60;60.00;;;;;;4860039;29;20078;-63
2021/09/10 05:56:21;;;;;;;14.95;9.05;;;17.80;59.90;;;;;;4860229;29;20033;-65
2021/09/10 05:58:47;;;;;;;14.60;9.88;;;17.90;59.70;;;;;;4859778;29;20056;-63
2021/09/10 06:01:13;;;;;;;12.35;9.23;;;18.00;59.60;;;;;;4859878;29;20030;-64
2021/09/10 06:03:39;;;;;;;11.52;8.25;;;18.10;59.30;;;;;;4859541;29;20041;-64
2021/09/10 06:06:08;;;;;;;11.02;7.43;;;18.30;59.20;;;;;;4859783;29;20029;-65
2021/09/10 06:08:34;;;;;;;10.27;7.30;;;18.40;59.00;;;;;;4859897;29;20104;-64
2021/09/10 06:11:00;;;;;;;9.95;6.63;;;18.50;58.80;;;;;;4859853;29;20108;-63
2021/09/10 06:13:25;;;;;;;11.45;6.45;;;18.70;58.70;;;;;;4859948;29;20055;-64
2021/09/10 06:15:51;;;;;;;9.35;6.63;;;18.70;58.40;;;;;;4859768;29;20397;-63
2021/09/10 06:18:16;;;;;;;8.93;5.80;;;18.80;58.20;;;;;;4859727;29;20521;-64
2021/09/10 06:20:42;;;;;;;8.80;5.75;;;18.90;57.90;;;;;;4859398;29;20056;-63
2021/09/10 06:23:08;;;;;;;9.60;5.82;;;19.00;57.70;;;;;;4859578;29;20498;-63
2021/09/10 06:25:33;;;;;;;9.75;6.13;;;19.10;57.60;;;;;;4859468;29;20470;-64
2021/09/10 06:27:59;;;;;;;8.63;5.57;;;19.20;57.40;;;;;;4859576;29;20080;-64
2021/09/10 06:30:26;;;;;;;8.75;5.63;;;19.40;57.30;;;;;;4852743;29;20053;-63
2021/09/10 06:32:52;;;;;;;9.02;5.68;;;19.40;57.10;;;;;;4856201;29;20032;-63
2021/09/10 06:35:18;;;;;;;10.63;5.88;;;19.50;56.90;;;;;;4859107;29;20045;-64
2021/09/10 06:37:44;;;;;;;8.52;5.50;;;19.60;56.80;;;;;;4858949;29;20038;-64
2021/09/10 06:40:11;;;;;;;8.05;5.10;;;19.70;56.60;;;;;;4858925;29;20023;-64
2021/09/10 06:42:36;;;;;;;8.95;5.78;;;19.90;56.50;;;;;;4859405;29;20029;-64
2021/09/10 06:45:03;;;;;;;8.50;5.65;;;19.90;56.30;;;;;;4858233;29;20030;-65
2021/09/10 06:47:28;;;;;;;9.38;5.70;;;20.00;56.10;;;;;;4858805;29;20121;-64
2021/09/10 06:49:55;;;;;;;9.77;6.70;;;20.10;56.10;;;;;;4858883;29;20458;-64
2021/09/10 06:52:21;;;;;;;10.40;6.35;;;20.20;55.90;;;;;;4858893;29;20044;-64
2021/09/10 06:54:47;;;;;;;8.30;5.97;;;20.30;55.70;;;;;;4859066;29;20431;-63
2021/09/10 06:57:13;;;;;;;8.65;6.13;;;20.40;56.00;;;;;;4859242;29;20040;-64
2021/09/10 06:59:38;;;;;;;8.40;5.85;;;20.50;55.60;;;;;;4858697;29;20034;-65
2021/09/10 07:02:04;;;;;;;9.35;6.25;;;20.60;55.40;;;;;;4859076;29;20033;-63
2021/09/10 07:04:30;;;;;;;10.02;6.30;;;20.80;55.30;;;;;;4858767;29;20451;-68
2021/09/10 07:06:56;;;;;;;9.73;6.25;;;20.90;55.10;;;;;;4859104;29;20026;-66
2021/09/10 07:09:22;;;;;;;9.25;6.03;;;21.20;54.90;;;;;;4853836;29;20037;-64
2021/09/10 07:11:47;;;;;;;8.65;5.97;;;21.30;54.70;;;;;;4859223;29;20034;-64
2021/09/10 07:14:14;;;;;;;8.35;5.70;;;21.50;54.40;;;;;;4856541;29;20033;-64
2021/09/10 07:16:40;;;;;;;7.55;5.28;;;21.70;54.20;;;;;;4860759;29;20539;-65
2021/09/10 07:19:05;;;;;;;8.57;5.53;;;21.90;53.90;;;;;;4861435;29;20120;-65
2021/09/10 07:21:31;;;;;;;8.57;5.70;;;22.10;53.70;;;;;;4862373;29;20067;-64
2021/09/10 07:23:57;;;;;;;7.32;5.10;;;22.30;53.50;;;;;;4862350;29;20056;-63
2021/09/10 07:26:24;;;;;;;8.40;6.10;;;22.50;53.20;;;;;;4862057;29;20037;-63
2021/09/10 07:28:50;;;;;;;7.78;5.25;;;22.70;53.10;;;;;;4865665;29;20037;-64
2021/09/10 07:31:16;;;;;;;8.25;5.68;;;23.00;52.90;;;;;;4862132;29;20490;-64
2021/09/10 07:33:43;;;;;;;8.48;5.88;;;23.20;52.60;;;;;;4862312;29;20037;-67
2021/09/10 07:36:09;;;;;;;8.88;5.75;;;23.50;52.30;;;;;;4862146;29;20036;-65
2021/09/10 07:38:35;;;;;;;7.13;5.15;;;23.70;52.00;;;;;;4862222;29;20029;-64
2021/09/10 07:41:02;;;;;;;7.88;5.47;;;23.90;51.70;;;;;;4845769;29;20505;-64
2021/09/10 07:43:28;;;;;;;9.18;5.70;;;24.10;51.40;;;;;;4869340;29;20033;-65
2021/09/10 07:45:54;;;;;;;8.73;5.30;;;24.30;51.10;;;;;;4864372;29;20113;-64
2021/09/10 07:48:20;;;;;;;8.43;5.20;;;24.50;50.90;;;;;;4861703;29;20058;-64
2021/09/10 07:50:45;;;;;;;8.50;5.13;;;24.70;50.60;;;;;;4861620;29;20377;-64
2021/09/10 07:53:11;;;;;;;8.85;5.20;;;24.80;50.50;;;;;;4861609;29;20096;-64
2021/09/10 07:55:38;;;;;;;7.40;5.10;;;25.00;50.40;;;;;;4862315;29;20480;-64
2021/09/10 07:58:04;;;;;;;6.80;4.38;;;25.20;50.20;;;;;;4861866;29;20018;-65
2021/09/10 08:00:29;;;;;;;7.25;4.82;;;25.30;50.00;;;;;;4861371;29;20032;-66
2021/09/10 08:02:55;;;;;;;7.15;5.05;;;25.50;49.80;;;;;;4861506;29;20040;-67
2021/09/10 08:05:21;;;;;;;7.50;5.30;;;25.60;49.50;;;;;;4862011;29;20033;-65
2021/09/10 08:07:47;;;;;;;6.82;4.65;;;25.80;49.30;;;;;;4861928;29;20469;-64
2021/09/10 08:10:17;;;;;;;7.43;5.10;;;26.00;49.10;;;;;;4861285;29;20040;-65
2021/09/10 08:12:47;;;;;;;7.35;5.10;;;26.10;49.00;;;;;;4861695;29;20037;-64
2021/09/10 08:15:15;;;;;;;7.22;5.00;;;26.40;48.90;;;;;;4875059;29;20508;-64
2021/09/10 08:17:41;;;;;;;7.22;5.10;;;26.50;48.70;;;;;;4859619;29;20037;-65
2021/09/10 08:20:09;;;;;;;7.22;5.35;;;26.70;48.50;;;;;;4861094;29;20496;-64
2021/09/10 08:22:35;;;;;;;7.20;5.03;;;26.80;48.40;;;;;;4861529;29;20053;-65
2021/09/10 08:25:05;;;;;;;7.60;5.35;;;26.90;48.20;;;;;;4861074;29;20485;-65
2021/09/10 08:27:31;;;;;;;7.95;5.22;;;27.00;48.20;;;;;;4861155;29;20121;-65
2021/09/10 08:29:57;;;;;;;7.93;5.55;;;27.20;48.10;;;;;;4861770;29;20170;-66
2021/09/10 08:32:23;;;;;;;8.30;5.32;;;27.30;48.00;;;;;;4861553;29;20029;-64
2021/09/10 08:34:50;;;;;;;7.70;5.35;;;27.50;47.90;;;;;;4848389;29;20036;-65
2021/09/10 08:37:16;;;;;;;7.50;5.15;;;27.70;47.70;;;;;;4850027;29;20382;-64
2021/09/10 08:39:42;;;;;;;7.82;5.10;;;27.80;47.50;;;;;;4861043;29;20030;-64
2021/09/10 08:42:08;;;;;;;9.13;5.35;;;27.90;47.30;;;;;;4861094;29;20021;-65
2021/09/10 08:44:37;;;;;;;8.15;5.53;;;28.00;47.00;;;;;;4860949;29;20052;-67
2021/09/10 08:47:03;;;;;;;7.85;5.80;;;28.20;46.90;;;;;;4859785;29;20033;-64
2021/09/10 08:49:29;;;;;;;8.32;5.60;;;28.30;46.80;;;;;;4877815;29;20037;-65
2021/09/10 08:51:54;;;;;;;10.40;5.40;;;28.50;46.70;;;;;;4877873;29;20025;-65
2021/09/10 08:54:20;;;;;;;7.43;4.93;;;28.70;47.20;;;;;;4877998;29;20071;-65
2021/09/10 08:56:46;;;;;;;7.38;4.95;;;28.80;46.90;;;;;;4878250;29;20387;-66
2021/09/10 08:59:16;;;;;;;7.70;4.88;;;29.00;46.10;;;;;;4864648;29;20098;-65
2021/09/10 09:01:53;;;;;;;7.22;5.15;;;29.20;45.80;;;;;;4860896;29;20022;-65
2021/09/10 09:04:20;;;;;;;7.35;5.13;;;29.40;45.70;;;;;;4860112;29;20029;-65
2021/09/10 09:06:53;;;;;;;7.95;5.20;;;29.50;45.50;;;;;;4860429;29;20026;-64
2021/09/10 09:09:47;;;;;;;6.95;5.15;;;29.70;45.10;;;;;;4859863;29;20813;-64
2021/09/10 09:12:30;;;;;;;7.72;4.97;;;29.90;43.90;;;;;;4860370;29;20489;-66
2021/09/10 09:15:04;;;;;;;6.82;4.47;;;30.00;44.30;;;;;;4867468;29;20029;-66
2021/09/10 09:17:38;;;;;;;7.63;4.93;;;30.10;44.50;;;;;;4879155;29;20037;-63
2021/09/10 09:20:25;;;;;;;7.00;4.90;;;30.20;44.20;;;;;;4878462;29;20029;-63
2021/09/10 09:22:56;;;;;;;7.15;4.60;;;30.40;43.10;;;;;;4878938;29;20124;-65
2021/09/10 09:25:24;;;;;;;7.60;5.07;;;30.60;43.80;;;;;;4878061;29;20508;-64
2021/09/10 09:27:50;;;;;;;7.47;4.70;;;30.70;43.70;;;;;;4860527;29;20120;-65
2021/09/10 09:30:34;;;;;;;7.45;5.00;;;30.90;43.50;;;;;;4860451;29;20033;-64
2021/09/10 09:33:01;;;;;;;7.55;4.72;;;31.00;42.30;;;;;;4860835;29;20033;-65
2021/09/10 09:35:32;;;;;;;7.38;4.80;;;31.20;43.00;;;;;;4859225;29;20025;-65
2021/09/10 09:37:58;;;;;;;7.03;4.93;;;31.30;42.80;;;;;;4878413;29;20057;-65
2021/09/10 09:40:34;;;;;;;8.07;5.28;;;31.50;42.70;;;;;;4878803;29;20064;-65
2021/09/10 09:43:10;;;;;;;6.90;4.95;;;31.60;42.10;;;;;;4879018;29;20021;-65
2021/09/10 09:45:37;;;;;;;7.95;4.82;;;31.60;42.20;;;;;;4878779;29;20033;-64
2021/09/10 09:48:11;;;;;;;6.78;4.85;;;31.80;42.10;;;;;;4878576;29;20036;-65
2021/09/10 09:50:37;;;;;;;6.93;4.85;;;31.90;41.90;;;;;;4879146;29;20029;-65
2021/09/10 09:53:06;;;;;;;7.30;4.65;;;32.00;41.90;;;;;;4856693;29;20516;-66
2021/09/10 09:55:33;;;;;;;6.60;4.63;;;32.10;41.70;;;;;;4859780;29;20041;-65
2021/09/10 09:58:03;;;;;;;6.03;4.20;;;32.30;41.50;;;;;;4860062;29;20026;-65
2021/09/10 10:00:29;;;;;;;6.45;4.22;;;32.30;41.20;;;;;;4859945;29;20022;-64
2021/09/10 10:02:55;;;;;;;5.72;4.10;;;32.40;41.00;;;;;;4860292;29;20048;-65
2021/09/10 10:05:21;;;;;;;6.90;4.72;;;32.50;40.80;;;;;;4860204;29;20481;-67
2021/09/10 10:08:10;;;;;;;6.55;4.38;;;32.60;40.60;;;;;;4859998;29;20030;-64
2021/09/10 10:10:49;;;;;;;7.22;4.70;;;32.70;39.50;;;;;;4860072;29;20025;-65
2021/09/10 10:13:24;;;;;;;6.43;4.32;;;32.90;40.00;;;;;;4859729;29;20033;-65
2021/09/10 10:15:52;;;;;;;6.90;4.40;;;33.00;40.20;;;;;;4859906;29;20037;-64
2021/09/10 10:18:41;;;;;;;6.80;4.30;;;33.20;40.20;;;;;;4845078;29;20093;-66
2021/09/10 10:21:09;;;;;;;6.10;4.13;;;33.30;39.30;;;;;;4841609;29;20101;-64
2021/09/10 10:23:44;;;;;;;6.13;4.05;;;33.50;39.80;;;;;;4840916;29;20524;-64
2021/09/10 10:29:09;;;;;;;6.03;3.80;;;33.70;39.30;;;;;;4956752;23;20072;-63
2021/09/10 10:31:59;;;;;;;5.40;3.83;;;33.80;39.00;;;;;;4859474;29;20026;-63
2021/09/10 10:34:27;;;;;;;6.60;4.30;;;33.90;38.20;;;;;;4859161;29;20022;-62
2021/09/10 10:36:52;;;;;;;5.40;3.72;;;34.00;38.90;;;;;;4845912;29;20034;-64
2021/09/10 10:39:27;;;;;;;6.45;4.40;;;34.10;38.90;;;;;;4854739;29;20034;-62
2021/09/10 10:42:00;;;;;;;5.78;4.05;;;34.30;38.80;;;;;;4858022;29;20040;-63
2021/09/10 10:44:35;;;;;;;5.95;3.88;;;34.40;38.50;;;;;;4857467;29;20438;-63
2021/09/10 10:47:11;;;;;;;6.32;4.18;;;34.60;37.90;;;;;;4855413;29;20034;-63
2021/09/10 10:49:45;;;;;;;5.90;4.13;;;34.70;38.20;;;;;;4850891;29;20536;-62
2021/09/10 10:52:23;;;;;;;7.55;4.55;;;34.90;38.20;;;;;;4862457;29;20458;-62
2021/09/10 10:55:17;;;;;;;7.43;4.25;;;35.10;37.50;;;;;;4843879;29;20022;-62
2021/09/10 10:57:43;;;;;;;6.47;4.38;;;35.20;37.00;;;;;;4844120;29;20038;-63
2021/09/10 11:00:28;;;;;;;7.22;4.00;;;35.40;37.80;;;;;;4844192;29;20417;-63
2021/09/10 11:03:16;;;;;;;5.95;4.20;;;35.60;36.40;;;;;;4844191;29;20026;-63
2021/09/10 11:05:46;;;;;;;9.00;5.18;;;35.90;36.10;;;;;;4853678;29;20473;-65
2021/09/10 11:08:20;;;;;;;7.90;5.20;;;36.20;37.80;;;;;;4862566;29;20045;-62
2021/09/10 11:10:51;;;;;;;7.18;4.53;;;36.40;37.50;;;;;;4862291;29;20041;-62
2021/09/10 11:13:16;;;;;;;;;;;36.70;37.10;;;;;;4863164;29;20480;-63
2021/09/10 11:15:42;;;;;;;7.18;4.30;;;36.90;35.10;;;;;;4858333;29;19968;-63
2021/09/10 11:18:14;;;;;;;6.53;4.22;;;37.20;37.30;;;;;;4861937;29;20029;-62
2021/09/10 11:20:42;;;;;;;6.07;4.00;;;37.60;36.20;;;;;;4862655;29;20196;-62
2021/09/10 11:23:16;;;;;;;6.78;4.38;;;37.90;36.50;;;;;;4862471;29;20037;-62
2021/09/10 11:25:44;;;;;;;6.75;4.75;;;38.20;36.10;;;;;;4862426;29;20056;-63
2021/09/10 11:28:11;;;;;;;6.50;4.65;;;38.50;36.10;;;;;;4862095;29;20069;-63
2021/09/10 11:30:37;;;;;;;6.78;4.40;;;38.80;35.70;;;;;;4862473;29;20030;-63
2021/09/10 11:33:03;;;;;;;6.63;4.47;;;39.10;35.60;;;;;;4860368;29;20103;-62
2021/09/10 11:35:31;;;;;;;6.25;3.83;;;39.50;35.50;;;;;;4861669;29;20033;-63
2021/09/10 11:38:01;;;;;;;5.78;3.80;;;39.70;35.10;;;;;;4862397;29;20034;-65
2021/09/10 11:40:27;;;;;;;6.25;3.97;;;40.00;34.70;;;;;;4860450;29;20057;-65
2021/09/10 11:43:06;;;;;;;6.20;4.30;;;40.30;34.60;;;;;;4858017;29;20106;-64
2021/09/10 11:45:37;;;;;;;7.35;4.25;;;40.60;33.90;;;;;;4858997;29;20085;-64
2021/09/10 11:48:05;;;;;;;6.07;4.05;;;40.80;34.20;;;;;;4872798;29;20040;-64
2021/09/10 11:50:57;;;;;;;6.10;4.07;;;41.00;34.10;;;;;;4861460;29;20369;-63
2021/09/10 11:53:34;;;;;;;5.20;3.67;;;41.20;31.40;;;;;;4856702;29;20065;-63
2021/09/10 11:56:05;;;;;;;5.82;4.18;;;41.40;32.70;;;;;;4861053;29;20034;-63
2021/09/10 11:58:44;;;;;;;6.70;3.75;;;41.60;33.30;;;;;;4861186;29;20040;-63
2021/09/10 12:01:27;;;;;;;6.15;4.13;;;41.80;32.30;;;;;;4860654;29;20563;-64
2021/09/10 12:04:04;;;;;;;7.80;4.07;;;42.00;32.10;;;;;;4862001;29;20028;-65
2021/09/10 12:06:45;;;;;;;5.82;3.92;;;42.20;32.70;;;;;;4878674;29;20029;-64
2021/09/10 12:09:20;;;;;;;6.97;4.07;;;42.40;32.10;;;;;;4863049;29;20068;-63
2021/09/10 12:12:06;;;;;;;5.85;3.60;;;42.50;32.30;;;;;;4861026;29;20029;-64
2021/09/10 12:14:40;;;;;;;5.90;3.83;;;42.70;30.30;;;;;;4860976;29;20373;-63
2021/09/10 12:17:12;;;;;;;5.40;3.58;;;42.70;31.90;;;;;;4860815;29;20025;-63
2021/09/10 12:19:52;;;;;;;5.70;3.80;;;42.90;31.90;;;;;;4844334;29;20022;-64
2021/09/10 12:22:35;;;;;;;5.00;3.60;;;43.00;31.30;;;;;;4861094;29;20028;-64
2021/09/10 12:25:20;;;;;;;5.78;3.80;;;43.10;29.70;;;;;;4855804;29;20313;-63
2021/09/10 12:27:46;;;;;;;5.80;4.20;;;43.20;30.00;;;;;;4859308;29;20103;-63
2021/09/10 12:30:14;;;;;;;5.43;4.05;;;43.40;31.40;;;;;;4864377;29;20550;-63
2021/09/10 12:32:40;;;;;;;5.47;4.13;;;43.50;31.10;;;;;;4860805;29;20037;-63
2021/09/10 12:35:07;;;;;;;8.63;4.05;;;43.60;30.90;;;;;;4869329;29;20441;-63
2021/09/10 12:37:32;;;;;;;6.38;3.95;;;43.80;30.80;;;;;;4878988;29;20108;-63
2021/09/10 12:39:59;;;;;;;5.72;3.70;;;43.90;30.70;;;;;;4861091;29;20113;-63
2021/09/10 12:42:25;;;;;;;5.40;3.65;;;44.00;30.60;;;;;;4861085;29;20060;-63
2021/09/10 12:44:51;;;;;;;5.53;3.78;;;44.10;30.40;;;;;;4861412;29;20068;-64